Time;durP1;ratioP1;P1;durP2;ratioP2;P2;SDS_P1;SDS_P2;PMS_P1;PMS_P2;Temp;Humidity;BMP_temperature;BMP_pressure;BME280_temperature;BME280_humidity;BME280_pressure;Samples;Min_cycle;Max_cycle;Signal;HPM_P1;HPM_P2
2022/10/26 05:16:21;;;;;;;11.22;10.08;;;;;;;11.88;100.00;99226.77;1743120;80;21051;-71
2022/10/26 05:19:00;;;;;;;12.25;10.35;;;;;;;11.93;100.00;99225.24;1719785;82;21570;-70
2022/10/26 05:21:27;;;;;;;17.37;15.48;;;;;;;11.96;100.00;99229.00;1751603;81;21810;-71
2022/10/26 05:23:56;;;;;;;15.48;13.05;;;;;;;11.97;100.00;99231.53;1738331;81;21100;-70
2022/10/26 05:26:28;;;;;;;13.98;12.05;;;;;;;12.01;100.00;99225.67;1717209;82;20959;-71
2022/10/26 05:29:09;;;;;;;15.68;10.70;;;;;;;12.03;100.00;99223.84;1720150;81;20964;-70
2022/10/26 05:31:53;;;;;;;13.43;11.03;;;;;;;12.05;100.00;99228.05;1730045;81;21018;-71
2022/10/26 05:34:36;;;;;;;13.22;11.73;;;;;;;12.07;100.00;99228.82;1711344;81;21094;-71
2022/10/26 05:37:20;;;;;;;13.08;11.65;;;;;;;12.08;100.00;99228.36;1730072;81;21279;-70
2022/10/26 05:39:49;;;;;;;13.88;12.28;;;;;;;12.12;100.00;99232.50;1716922;81;21055;-69
2022/10/26 05:42:16;;;;;;;13.93;12.43;;;;;;;12.15;100.00;99238.02;1708507;82;20974;-70
2022/10/26 05:44:48;;;;;;;17.57;14.00;;;;;;;12.17;100.00;99237.48;1744322;81;21071;-70
2022/10/26 05:47:16;;;;;;;15.48;13.10;;;;;;;12.18;100.00;99240.02;1727493;81;21249;-69
2022/10/26 05:49:50;;;;;;;14.75;13.08;;;;;;;12.22;100.00;99253.25;1724887;81;21519;-71
2022/10/26 05:52:20;;;;;;;13.25;11.83;;;;;;;12.23;100.00;99243.66;1702415;83;21019;-71
2022/10/26 05:54:49;;;;;;;13.10;11.35;;;;;;;12.24;100.00;99247.50;1700285;81;21099;-71
2022/10/26 05:57:19;;;;;;;12.53;11.12;;;;;;;12.26;100.00;99256.09;1712913;82;21637;-70
2022/10/26 05:59:50;;;;;;;14.55;11.48;;;;;;;12.27;100.00;99253.02;1718885;82;21137;-69
2022/10/26 06:02:40;;;;;;;10.58;9.48;;;;;;;12.28;100.00;99253.41;1720889;81;21001;-69
2022/10/26 06:05:17;;;;;;;12.47;11.15;;;;;;;12.30;100.00;99259.39;1721131;81;21128;-70
2022/10/26 06:07:49;;;;;;;14.43;12.47;;;;;;;12.32;100.00;99266.67;1692800;82;21504;-71
2022/10/26 06:10:23;;;;;;;12.15;10.82;;;;;;;12.33;100.00;99273.12;1712197;82;21098;-72
2022/10/26 06:12:50;;;;;;;16.48;11.78;;;;;;;12.34;100.00;99271.35;1713576;82;21378;-72
2022/10/26 06:15:23;;;;;;;16.07;11.63;;;;;;;12.37;100.00;99275.11;1714266;82;21023;-70
2022/10/26 06:17:56;;;;;;;13.22;11.53;;;;;;;12.40;100.00;99274.92;1716889;82;21061;-71
2022/10/26 06:20:50;;;;;;;12.58;11.30;;;;;;;12.45;100.00;99273.39;1731812;82;21050;-71
2022/10/26 06:23:53;;;;;;;18.42;13.70;;;;;;;12.49;100.00;99275.77;1723202;82;21567;-70
2022/10/26 06:26:47;;;;;;;18.50;15.40;;;;;;;12.54;100.00;99283.36;1727331;81;21452;-70
2022/10/26 06:29:48;;;;;;;15.95;12.10;;;;;;;12.60;100.00;99287.77;1698252;82;21605;-70
2022/10/26 06:32:21;;;;;;;14.07;11.68;;;;;;;12.63;100.00;99289.38;1698690;82;21055;-70
2022/10/26 06:34:49;;;;;;;14.98;11.97;;;;;;;12.63;100.00;99294.14;1711316;81;21115;-69
2022/10/26 06:37:17;;;;;;;13.03;11.50;;;;;;;12.65;100.00;99300.13;1720639;82;21164;-70
2022/10/26 06:39:47;;;;;;;13.10;11.12;;;;;;;12.67;100.00;99305.27;1715095;82;21258;-71
2022/10/26 06:42:16;;;;;;;12.95;10.63;;;;;;;12.66;100.00;99307.48;1739763;81;21030;-71
2022/10/26 06:44:43;;;;;;;11.22;10.03;;;;;;;12.65;100.00;99304.03;1690516;81;21049;-71
2022/10/26 06:47:30;;;;;;;11.90;10.43;;;;;;;12.66;100.00;99310.09;1716244;82;21573;-70
2022/10/26 06:50:19;;;;;;;13.98;12.20;;;;;;;12.67;100.00;99314.39;1718444;82;21116;-72
2022/10/26 06:53:11;;;;;;;11.60;10.50;;;;;;;12.68;100.00;99314.31;1721923;82;21869;-71
2022/10/26 06:55:43;;;;;;;13.08;10.95;;;;;;;12.72;100.00;99313.70;1725608;81;21032;-70
2022/10/26 06:58:18;;;;;;;12.90;10.70;;;;;;;12.74;100.00;99324.44;1727015;82;21120;-69
2022/10/26 07:00:48;;;;;;;13.05;10.48;;;;;;;12.83;100.00;99327.02;1729645;82;21105;-70
2022/10/26 07:03:15;;;;;;;13.72;10.98;;;;;;;12.83;100.00;99327.02;1694034;82;21864;-70
2022/10/26 07:05:43;;;;;;;12.98;10.88;;;;;;;12.91;100.00;99335.30;1715722;81;21130;-71
2022/10/26 07:08:10;;;;;;;12.43;11.08;;;;;;;13.02;100.00;99337.31;1707167;82;21042;-70
2022/10/26 07:10:38;;;;;;;11.95;10.00;;;;;;;13.10;100.00;99333.38;1706063;81;21663;-71
2022/10/26 07:13:06;;;;;;;11.60;10.40;;;;;;;13.19;100.00;99334.67;1738559;80;21089;-70
2022/10/26 07:15:34;;;;;;;12.58;11.12;;;;;;;13.25;100.00;99335.65;1728310;81;21101;-71
2022/10/26 07:18:02;;;;;;;20.68;12.63;;;;;;;13.36;100.00;99342.45;1703143;81;21880;-70
2022/10/26 07:20:29;;;;;;;30.55;19.45;;;;;;;13.53;100.00;99346.75;1716845;81;20980;-71
2022/10/26 07:22:56;;;;;;;21.10;16.32;;;;;;;13.53;100.00;99346.75;1697239;81;21127;-71
2022/10/26 07:25:24;;;;;;;19.48;15.63;;;;;;;13.60;100.00;99342.84;1693609;83;21042;-69
2022/10/26 07:27:51;;;;;;;17.98;14.05;;;;;;;13.61;100.00;99341.92;1663033;82;21074;-72
2022/10/26 07:30:18;;;;;;;19.10;15.28;;;;;;;13.74;100.00;99343.40;1696314;82;21214;-70
2022/10/26 07:32:44;;;;;;;15.83;13.70;;;;;;;13.74;100.00;99343.40;1667763;84;21144;-71
2022/10/26 07:35:11;;;;;;;15.35;11.28;;;;;;;13.73;100.00;99353.02;1729980;81;21474;-71
2022/10/26 07:37:39;;;;;;;12.40;9.75;;;;;;;13.72;100.00;99351.79;1718555;81;21158;-74
2022/10/26 07:40:08;;;;;;;13.95;10.85;;;;;;;13.68;100.00;99355.50;1675763;83;21160;-69
2022/10/26 07:42:36;;;;;;;15.98;13.32;;;;;;;13.65;100.00;99356.50;1659422;84;21283;-70
2022/10/26 07:45:05;;;;;;;15.65;11.33;;;;;;;13.64;100.00;99359.20;1654990;84;21450;-69
2022/10/26 07:47:34;;;;;;;13.28;10.58;;;;;;;13.62;100.00;99359.28;1688741;84;21389;-74
2022/10/26 07:50:02;;;;;;;12.18;10.08;;;;;;;13.58;100.00;99361.72;1678904;85;21062;-68
2022/10/26 07:52:29;;;;;;;11.95;10.30;;;;;;;13.57;100.00;99357.41;1677165;85;21102;-71
2022/10/26 07:54:55;;;;;;;11.65;9.38;;;;;;;13.58;100.00;99361.72;1665042;84;22145;-71
2022/10/26 07:57:22;;;;;;;10.05;8.73;;;;;;;13.61;100.00;99363.28;1684616;83;21075;-69
2022/10/26 07:59:50;;;;;;;13.22;10.48;;;;;;;13.63;100.00;99357.05;1678440;83;21035;-70
2022/10/26 08:02:19;;;;;;;13.22;8.43;;;;;;;13.68;100.00;99360.26;1726353;81;21020;-70
2022/10/26 08:04:48;;;;;;;12.03;9.40;;;;;;;13.73;100.00;99358.70;1699433;83;21040;-71
2022/10/26 08:07:15;;;;;;;11.90;10.45;;;;;;;13.82;100.00;99362.55;1670120;83;22001;-69
2022/10/26 08:09:42;;;;;;;16.93;9.50;;;;;;;13.90;100.00;99361.20;1701901;83;21019;-70
2022/10/26 08:12:12;;;;;;;13.43;8.60;;;;;;;14.00;100.00;99366.27;1713409;83;21054;-71
2022/10/26 08:14:39;;;;;;;8.63;6.90;;;;;;;14.08;100.00;99369.77;1726380;82;21058;-70
2022/10/26 08:17:06;;;;;;;15.18;8.20;;;;;;;14.14;100.00;99372.89;1726318;81;21016;-72
2022/10/26 08:19:33;;;;;;;9.40;6.50;;;;;;;14.12;100.00;99372.59;1742308;81;21248;-73
2022/10/26 08:22:01;;;;;;;8.80;5.92;;;;;;;14.10;100.00;99371.38;1704076;82;21056;-70
2022/10/26 08:24:28;;;;;;;6.75;6.05;;;;;;;14.24;100.00;99381.49;1717268;81;21131;-69
2022/10/26 08:26:55;;;;;;;5.60;4.80;;;;;;;14.30;100.00;99379.38;1738017;81;20991;-71
2022/10/26 08:29:22;;;;;;;5.70;4.15;;;;;;;14.30;100.00;99379.38;1733537;81;21045;-69
2022/10/26 08:31:48;;;;;;;8.15;4.97;;;;;;;14.35;100.00;99383.88;1714797;81;21433;-68
2022/10/26 08:34:15;;;;;;;10.25;5.22;;;;;;;14.31;100.00;99390.22;1733914;81;21039;-71
2022/10/26 08:36:49;;;;;;;4.80;4.15;;;;;;;14.31;100.00;99390.22;1704166;81;21494;-70
2022/10/26 08:39:54;;;;;;;8.18;5.33;;;;;;;14.33;100.00;99392.75;1712169;81;21101;-70
2022/10/26 08:42:36;;;;;;;11.45;5.85;;;;;;;14.31;99.87;99394.14;1725814;81;21017;-71
2022/10/26 08:45:14;;;;;;;10.60;6.00;;;;;;;14.29;99.75;99400.39;1707690;83;21114;-69
2022/10/26 08:47:47;;;;;;;10.78;7.40;;;;;;;14.27;100.00;99402.25;1749614;80;21513;-69
2022/10/26 08:50:31;;;;;;;11.83;5.83;;;;;;;14.27;100.00;99407.48;1758200;80;21015;-72
2022/10/26 08:53:19;;;;;;;16.77;7.05;;;;;;;14.31;100.00;99400.69;1745151;81;21139;-71
2022/10/26 08:55:55;;;;;;;11.68;5.85;;;;;;;14.34;100.00;99401.82;1696269;83;21175;-70
2022/10/26 08:58:37;;;;;;;15.70;7.33;;;;;;;14.38;100.00;99407.72;1686221;83;21152;-70
2022/10/26 09:01:09;;;;;;;11.88;6.20;;;;;;;14.37;100.00;99412.11;1727689;81;21042;-71
2022/10/26 09:03:40;;;;;;;8.40;3.45;;;;;;;14.37;100.00;99419.13;1743645;81;21519;-71
2022/10/26 09:06:48;;;;;;;8.23;3.87;;;;;;;14.26;99.95;99419.72;1713086;80;21039;-71
2022/10/26 09:09:24;;;;;;;7.03;3.33;;;;;;;14.10;99.79;99425.45;1716080;81;21137;-72
2022/10/26 09:12:15;;;;;;;6.92;3.75;;;;;;;13.79;100.00;99432.38;1721735;82;21198;-70
2022/10/26 09:15:14;;;;;;;3.33;2.92;;;;;;;13.79;100.00;99432.38;1670785;83;21118;-71
2022/10/26 09:18:02;;;;;;;5.53;3.52;;;;;;;13.69;100.00;99438.20;1650906;85;21042;-72
2022/10/26 09:21:28;;;;;;;5.92;3.60;;;;;;;13.60;100.00;99447.38;1690893;81;21165;-70
2022/10/26 09:24:31;;;;;;;9.20;4.28;;;;;;;13.59;100.00;99444.38;1693426;82;21579;-71
2022/10/26 09:27:28;;;;;;;5.67;3.10;;;;;;;13.59;100.00;99444.38;1651370;84;21037;-70
2022/10/26 09:29:58;;;;;;;5.37;3.27;;;;;;;13.59;100.00;99452.22;1665521;85;21073;-70
2022/10/26 09:32:36;;;;;;;9.13;3.60;;;;;;;13.57;100.00;99442.80;1685249;83;21096;-70
2022/10/26 09:35:19;;;;;;;4.17;3.27;;;;;;;13.57;100.00;99444.11;1714721;83;21576;-70
2022/10/26 09:38:06;;;;;;;5.30;3.67;;;;;;;13.57;100.00;99444.11;1682263;84;20966;-70
2022/10/26 09:40:57;;;;;;;6.22;3.40;;;;;;;13.62;100.00;99444.22;1682632;83;21253;-70
2022/10/26 09:43:32;;;;;;;6.87;3.58;;;;;;;13.68;100.00;99438.67;1679915;84;21054;-70
2022/10/26 09:45:59;;;;;;;14.78;4.62;;;;;;;13.76;100.00;99436.95;1695814;83;21438;-70
2022/10/26 09:48:38;;;;;;;6.55;3.58;;;;;;;13.86;100.00;99438.12;1701163;83;21109;-69
2022/10/26 09:51:05;;;;;;;3.85;3.37;;;;;;;13.96;99.41;99441.08;1679408;84;20966;-70
2022/10/26 09:53:32;;;;;;;5.17;3.00;;;;;;;14.01;98.46;99443.80;1694129;83;21951;-70
2022/10/26 09:56:08;;;;;;;5.20;3.80;;;;;;;14.05;98.18;99440.55;1676764;83;21156;-69
2022/10/26 09:58:47;;;;;;;8.25;5.28;;;;;;;14.11;99.42;99440.22;1756300;80;21506;-70
2022/10/26 10:01:34;;;;;;;9.63;7.10;;;;;;;14.11;99.42;99440.22;1752472;80;21093;-71
2022/10/26 10:04:24;;;;;;;9.98;7.67;;;;;;;14.16;98.83;99447.81;1741735;80;21124;-71
2022/10/26 10:07:06;;;;;;;6.22;4.28;;;;;;;14.13;99.19;99444.90;1723646;80;21874;-71
2022/10/26 10:09:39;;;;;;;7.20;5.10;;;;;;;14.10;99.95;99441.98;1726447;81;21038;-72
2022/10/26 10:12:26;;;;;;;11.75;4.53;;;;;;;14.09;100.00;99445.99;1744703;81;21069;-72
2022/10/26 10:15:02;;;;;;;4.17;3.77;;;;;;;14.09;100.00;99446.84;1721831;82;21053;-71
2022/10/26 10:17:36;;;;;;;7.53;4.85;;;;;;;14.06;100.00;99440.93;1723422;80;21050;-71
2022/10/26 10:20:25;;;;;;;5.35;4.08;;;;;;;14.02;100.00;99448.09;1687939;83;21611;-71
2022/10/26 10:23:09;;;;;;;8.30;4.97;;;;;;;13.99;100.00;99450.88;1638805;85;21070;-70
2022/10/26 10:25:49;;;;;;;16.67;5.83;;;;;;;13.93;100.00;99458.24;1642408;85;21089;-71
2022/10/26 10:28:27;;;;;;;7.05;5.83;;;;;;;13.85;100.00;99444.27;1613626;85;21037;-72
2022/10/26 10:31:05;;;;;;;7.78;5.58;;;;;;;13.85;100.00;99444.27;1645991;84;21097;-71
2022/10/26 10:33:48;;;;;;;6.87;5.55;;;;;;;13.87;100.00;99449.42;1648510;86;21327;-72
2022/10/26 10:36:30;;;;;;;8.73;5.30;;;;;;;13.83;100.00;99446.13;1666377;85;21119;-71
2022/10/26 10:39:07;;;;;;;12.82;8.70;;;;;;;13.84;100.00;99446.97;1581705;89;21112;-71
2022/10/26 10:41:36;;;;;;;15.88;6.42;;;;;;;13.85;100.00;99449.50;1531345;91;21149;-71
2022/10/26 10:44:22;;;;;;;11.57;3.90;;;;;;;13.85;100.00;99445.58;1579646;88;21153;-72
2022/10/26 10:46:58;;;;;;;6.22;3.87;;;;;;;13.86;100.00;99447.73;1602619;87;21430;-71
2022/10/26 10:49:29;;;;;;;7.83;4.28;;;;;;;13.90;100.00;99452.72;1622156;86;21108;-71
2022/10/26 10:52:17;;;;;;;5.92;3.70;;;;;;;13.95;100.00;99452.00;1612316;88;21088;-70
2022/10/26 10:54:47;;;;;;;5.42;4.10;;;;;;;13.95;100.00;99452.00;1612657;86;21088;-70
2022/10/26 10:57:37;;;;;;;6.95;4.72;;;;;;;13.95;100.00;99462.47;1601396;87;21142;-70
2022/10/26 11:00:08;;;;;;;5.92;3.90;;;;;;;13.85;100.00;99457.34;1665880;81;21268;-70
2022/10/26 11:03:01;;;;;;;6.47;4.75;;;;;;;13.82;100.00;99456.66;1728618;81;21030;-71
2022/10/26 11:05:54;;;;;;;7.20;5.13;;;;;;;13.78;100.00;99457.33;1716194;82;21090;-71
2022/10/26 11:08:28;;;;;;;5.47;4.05;;;;;;;13.79;100.00;99459.82;1709208;81;21040;-71
